Canopee — FGD2805 — position and weather

sailwx.info

Track history (hours):
 
Tides and Currents Weather Stations Pressure Air Temp Water Temp Dewpoint Dewpoint Depression Visibility Wind Speed Wind Dir Waves Ship Positions

Canopee

Last reported at 2017-Sep-17 14:14 UTC. Time now 2017-Sep-21 18:02 UTC.
Position N 47°35' W 003°01'.

Length 11 m.

Type: Sailing vessel. MMSI: 227552720.

Date/timePositionNaut miles runAvg speedWind from/ knotsBaromVisibWave heightAir tempDewpointWater temp
2017-Sep-17 14:14N 47°35' W 003°01'0 0.0
2017-Sep-17 13:18N 47°35' W 003°01'0 0.0
2017-Sep-17 12:47N 47°35' W 003°01'0 0.0
2017-Sep-17 12:23N 47°35' W 003°01'0 0.0
2017-Sep-17 11:59N 47°35' W 003°01'0 0.0
2017-Sep-17 11:29N 47°35' W 003°01'0 0.0
2017-Sep-17 10:59N 47°35' W 003°01'0 0.0
2017-Sep-17 10:29N 47°35' W 003°01'0 0.0
2017-Sep-17 09:59N 47°35' W 003°01'1 1.3
2017-Sep-17 09:30N 47°35' W 003°01'3 6.4
2017-Sep-17 09:00N 47°32' W 003°01'4 7.3
2017-Sep-17 08:30N 47°28' W 003°02'3 6.4
2017-Sep-17 08:00N 47°26' W 003°05'3 6.2
2017-Sep-17 07:30N 47°24' W 003°09'3 6.0
2017-Sep-17 07:00N 47°23' W 003°13'0 0.0
2017-Sep-16 15:24N 47°22' W 003°13'0 0.3
2017-Sep-16 15:00N 47°23' W 003°13'2 4.0
2017-Sep-16 14:28N 47°22' W 003°10'2 5.2
2017-Sep-16 14:00N 47°22' W 003°06'2 4.1
2017-Sep-16 13:24N 47°23' W 003°03'2 6.1
2017-Sep-16 13:00N 47°24' W 002°60'1 0.4
2017-Sep-16 11:07N 47°24' W 002°59'0 2.8
2017-Sep-16 11:00N 47°24' W 002°59'3 5.0
2017-Sep-16 10:30N 47°27' W 002°60'2 4.8
2017-Sep-16 10:00N 47°29' W 002°60'2 4.9
2017-Sep-16 09:30N 47°32' W 003°00'2 3.4
2017-Sep-16 09:00N 47°33' W 003°01'2 3.7
2017-Sep-16 08:30N 47°35' W 003°01'  
Track history (hours):
 
Tides and Currents Weather Stations Pressure Air Temp Water Temp Dewpoint Dewpoint Depression Visibility Wind Speed Wind Dir Waves Ship Positions

Canopee

Last reported at 2017-Sep-17 14:14 UTC. Time now 2017-Sep-21 18:02 UTC.
Position N 47°35' W 003°01'.

Length 11 m.

Type: Sailing vessel. MMSI: 227552720.

Date/timePositionNaut miles runAvg speedWind from/ knotsBaromVisibWave heightAir tempDewpointWater temp
2017-Sep-17 14:14N 47°35' W 003°01'0 0.0
2017-Sep-17 13:18N 47°35' W 003°01'0 0.0
2017-Sep-17 12:47N 47°35' W 003°01'0 0.0
2017-Sep-17 12:23N 47°35' W 003°01'0 0.0
2017-Sep-17 11:59N 47°35' W 003°01'0 0.0
2017-Sep-17 11:29N 47°35' W 003°01'0 0.0
2017-Sep-17 10:59N 47°35' W 003°01'0 0.0
2017-Sep-17 10:29N 47°35' W 003°01'0 0.0
2017-Sep-17 09:59N 47°35' W 003°01'1 1.3
2017-Sep-17 09:30N 47°35' W 003°01'3 6.4
2017-Sep-17 09:00N 47°32' W 003°01'4 7.3
2017-Sep-17 08:30N 47°28' W 003°02'3 6.4
2017-Sep-17 08:00N 47°26' W 003°05'3 6.2
2017-Sep-17 07:30N 47°24' W 003°09'3 6.0
2017-Sep-17 07:00N 47°23' W 003°13'0 0.0
2017-Sep-16 15:24N 47°22' W 003°13'0 0.3
2017-Sep-16 15:00N 47°23' W 003°13'2 4.0
2017-Sep-16 14:28N 47°22' W 003°10'2 5.2
2017-Sep-16 14:00N 47°22' W 003°06'2 4.1
2017-Sep-16 13:24N 47°23' W 003°03'2 6.1
2017-Sep-16 13:00N 47°24' W 002°60'1 0.4
2017-Sep-16 11:07N 47°24' W 002°59'0 2.8
2017-Sep-16 11:00N 47°24' W 002°59'3 5.0
2017-Sep-16 10:30N 47°27' W 002°60'2 4.8
2017-Sep-16 10:00N 47°29' W 002°60'2 4.9
2017-Sep-16 09:30N 47°32' W 003°00'2 3.4
2017-Sep-16 09:00N 47°33' W 003°01'2 3.7
2017-Sep-16 08:30N 47°35' W 003°01'  

Dump ship's entire track history